createdAt,value
2023-04-02T00:01:04.572Z,52.00
2023-04-02T00:11:10.153Z,52.00
2023-04-02T00:21:16.378Z,50.00
2023-04-02T00:31:21.795Z,52.00
2023-04-02T00:41:27.409Z,52.00
2023-04-02T00:51:32.820Z,52.00
2023-04-02T01:01:38.610Z,50.00
2023-04-02T01:11:43.901Z,52.00
2023-04-02T01:21:49.280Z,60.00
2023-04-02T01:31:55.031Z,52.00
2023-04-02T01:42:00.452Z,50.00
2023-04-02T01:52:06.517Z,54.00
2023-04-02T02:02:12.064Z,54.00
2023-04-02T02:12:17.503Z,54.00
2023-04-02T02:22:23.272Z,52.00
2023-04-02T02:32:28.658Z,54.00
2023-04-02T02:42:33.937Z,54.00
2023-04-02T02:52:40.415Z,56.00
2023-04-02T03:02:46.195Z,60.00
2023-04-02T03:12:52.065Z,66.00
2023-04-02T03:22:57.648Z,48.00
2023-04-02T03:33:03.574Z,58.00
2023-04-02T03:43:09.244Z,56.00
2023-04-02T03:53:15.078Z,58.00
2023-04-02T04:03:20.795Z,60.00
2023-04-02T04:13:25.969Z,56.00
2023-04-02T04:23:31.929Z,56.00
2023-04-02T04:33:37.624Z,58.00
2023-04-02T04:43:43.423Z,54.00
2023-04-02T04:53:48.951Z,56.00
2023-04-02T05:03:54.617Z,54.00
2023-04-02T05:14:00.505Z,56.00
2023-04-02T05:24:06.210Z,56.00
2023-04-02T05:34:11.885Z,56.00
2023-04-02T05:44:17.639Z,56.00
2023-04-02T05:54:23.124Z,56.00
2023-04-02T06:04:28.583Z,56.00
2023-04-02T06:14:34.409Z,52.00
2023-04-02T06:24:40.228Z,50.00
2023-04-02T06:34:45.946Z,50.00
2023-04-02T06:44:51.621Z,56.00
2023-04-02T06:54:57.863Z,50.00
2023-04-02T07:05:04.215Z,60.00
2023-04-02T07:15:10.435Z,54.00
2023-04-02T07:25:16.767Z,64.00
2023-04-02T07:35:22.841Z,64.00
2023-04-02T07:45:29.231Z,64.00
2023-04-02T07:55:35.627Z,66.00
2023-04-02T08:05:42.002Z,60.00
2023-04-02T08:15:47.617Z,62.00
2023-04-02T08:25:53.478Z,60.00
2023-04-02T08:35:58.628Z,60.00
2023-04-02T08:46:04.110Z,60.00
2023-04-02T08:56:10.041Z,58.00
2023-04-02T09:06:16.643Z,60.00
2023-04-02T09:16:22.803Z,56.00
2023-04-02T09:26:28.896Z,56.00
2023-04-02T09:36:36.324Z,54.00
2023-04-02T09:46:43.188Z,54.00
2023-04-02T09:56:49.712Z,52.00
2023-04-02T10:06:56.337Z,58.00
2023-04-02T10:17:02.621Z,60.00
2023-04-02T10:27:08.863Z,54.00
2023-04-02T10:37:15.094Z,56.00
2023-04-02T10:47:21.714Z,54.00
2023-04-02T10:57:28.007Z,54.00
2023-04-02T11:07:34.509Z,54.00
2023-04-02T11:17:40.890Z,56.00
2023-04-02T11:27:47.025Z,60.00
2023-04-02T11:37:53.160Z,58.00
2023-04-02T11:47:59.649Z,60.00
2023-04-02T11:58:06.478Z,60.00
2023-04-02T12:08:13.129Z,62.00
2023-04-02T12:18:19.525Z,60.00
2023-04-02T12:28:25.813Z,64.00
2023-04-02T12:38:31.903Z,62.00
2023-04-02T12:48:38.300Z,62.00
2023-04-02T12:58:44.300Z,64.00
2023-04-02T13:08:50.451Z,62.00
2023-04-02T13:18:58.525Z,64.00
2023-04-02T13:29:04.800Z,62.00
2023-04-02T13:39:11.221Z,62.00
2023-04-02T13:49:17.705Z,58.00
2023-04-02T13:59:23.957Z,62.00
2023-04-02T14:09:30.411Z,60.00
2023-04-02T14:19:36.915Z,64.00
2023-04-02T14:29:42.734Z,64.00
2023-04-02T14:39:48.797Z,62.00
2023-04-02T14:49:55.228Z,68.00
2023-04-02T15:00:01.803Z,60.00
2023-04-02T15:10:08.190Z,62.00
2023-04-02T15:20:14.169Z,62.00
2023-04-02T15:30:20.653Z,62.00
2023-04-02T15:40:27.965Z,50.00
2023-04-02T15:50:34.558Z,52.00
2023-04-02T16:00:41.288Z,52.00
2023-04-02T16:10:48.335Z,58.00
2023-04-02T16:20:54.714Z,62.00
2023-04-02T16:31:01.178Z,66.00
2023-04-02T16:41:09.030Z,62.00
2023-04-02T16:51:15.632Z,60.00
2023-04-02T17:01:22.053Z,58.00
2023-04-02T17:11:28.479Z,60.00
2023-04-02T17:21:35.093Z,60.00
2023-04-02T17:31:43.576Z,58.00
2023-04-02T17:41:49.419Z,64.00
2023-04-02T17:51:55.208Z,68.00
2023-04-02T18:02:01.479Z,62.00
2023-04-02T18:12:07.876Z,64.00
2023-04-02T18:22:14.343Z,60.00
2023-04-02T18:32:20.096Z,58.00
2023-04-02T18:42:27.006Z,60.00
2023-04-02T18:52:33.178Z,64.00
2023-04-02T19:02:39.084Z,58.00
2023-04-02T19:12:45.089Z,60.00
2023-04-02T19:22:51.591Z,62.00
2023-04-02T19:32:59.676Z,54.00
2023-04-02T19:43:06.969Z,54.00
2023-04-02T19:53:13.073Z,54.00
2023-04-02T20:03:19.089Z,52.00
2023-04-02T20:13:25.247Z,52.00
2023-04-02T20:23:31.744Z,34.00
2023-04-02T20:33:40.033Z,40.00
2023-04-02T20:43:46.422Z,38.00
2023-04-02T20:53:52.684Z,38.00
2023-04-02T21:03:59.906Z,36.00
2023-04-02T21:14:06.589Z,54.00
2023-04-02T21:24:12.858Z,52.00
2023-04-02T21:34:19.434Z,48.00
2023-04-02T21:44:25.489Z,48.00
2023-04-02T21:54:31.619Z,48.00
2023-04-02T22:04:38.664Z,44.00
2023-04-02T22:14:44.473Z,44.00
2023-04-02T22:24:50.278Z,54.00
2023-04-02T22:34:57.038Z,62.00
2023-04-02T22:45:02.553Z,56.00
2023-04-02T22:55:08.096Z,54.00
2023-04-02T23:05:13.820Z,46.00
2023-04-02T23:15:19.148Z,46.00
2023-04-02T23:25:25.059Z,56.00
2023-04-02T23:35:30.742Z,54.00
2023-04-02T23:45:36.348Z,56.00
2023-04-02T23:55:42.100Z,58.00
